West Glens Falls, New York
Current Conditions -  °F | °C
As of 9:53 PM on Saturday 22 Nov 2014 (Local Time) from KGFL Reporting Station
Overcast Overcast  
Wind Chill: 28°   Ceiling: 2600
Heat Index: 37°   Visibility: 10mi
Dew Point: 21°   Wind: 15mph
Humidity: 52%   Direction: 200°SSW
Pressure: 30.04"   Gusts: NA
Location:  43.3117°N, 73.645°W
Report Text: KGFL 230253Z AUTO 20013KT 10SM BKN026 OVC040 03/M06 A3004 RMK AO2 SLP182 T00281061 55006
Loading
Personal Weather Stations






























Interactive Weather Map New forecast layout! Learn more

10-Day Weather Forecast

Advertisements
Track Severe Weather on mobile